createdAt,value
2022-09-02T00:04:14.939Z,23.40
2022-09-02T00:10:18.871Z,23.34
2022-09-02T00:16:24.096Z,23.39
2022-09-02T00:22:27.269Z,23.34
2022-09-02T00:28:31.033Z,23.28
2022-09-02T00:34:37.058Z,23.09
2022-09-02T00:40:46.779Z,23.08
2022-09-02T00:46:49.335Z,23.10
2022-09-02T00:53:17.963Z,23.21
2022-09-02T00:59:27.769Z,23.15
2022-09-02T01:05:35.443Z,23.07
2022-09-02T01:12:02.271Z,23.07
2022-09-02T01:18:11.325Z,23.18
2022-09-02T01:24:28.033Z,23.14
2022-09-02T01:30:36.917Z,23.11
2022-09-02T01:36:45.613Z,23.05
2022-09-02T01:42:54.354Z,22.94
2022-09-02T01:48:57.806Z,22.91
2022-09-02T01:55:08.934Z,22.70
2022-09-02T02:01:13.415Z,22.69
2022-09-02T02:07:28.835Z,22.67
2022-09-02T02:14:05.806Z,22.61
2022-09-02T02:20:15.649Z,22.58
2022-09-02T02:26:18.153Z,22.51
2022-09-02T02:32:31.139Z,22.34
2022-09-02T02:38:40.687Z,22.29
2022-09-02T02:44:43.307Z,22.34
2022-09-02T02:50:45.974Z,22.16
2022-09-02T02:56:48.381Z,22.39
2022-09-02T03:02:55.523Z,22.17
2022-09-02T03:08:59.990Z,22.05
2022-09-02T03:15:06.367Z,22.08
2022-09-02T03:21:11.350Z,22.23
2022-09-02T03:27:15.050Z,22.11
2022-09-02T03:33:21.755Z,22.04
2022-09-02T03:39:27.553Z,22.08
2022-09-02T03:45:32.166Z,22.12
2022-09-02T03:51:44.552Z,22.19
2022-09-02T03:57:50.679Z,22.26
2022-09-02T04:03:54.329Z,22.23
2022-09-02T04:09:57.353Z,22.20
2022-09-02T04:16:02.065Z,22.04
2022-09-02T09:41:53.586Z,26.60
2022-09-02T09:48:16.820Z,26.97
2022-09-02T09:54:19.910Z,27.41
2022-09-02T10:00:32.492Z,27.11
2022-09-02T10:06:39.095Z,27.31
2022-09-02T10:12:41.448Z,27.48
2022-09-02T10:18:58.730Z,27.42
2022-09-02T10:25:03.918Z,27.50
2022-09-02T10:31:44.271Z,27.51
2022-09-02T10:37:49.353Z,27.83
2022-09-02T10:44:21.853Z,28.09
2022-09-02T10:50:56.015Z,27.98
2022-09-02T10:57:12.084Z,28.24
2022-09-02T11:03:21.894Z,28.41
2022-09-02T11:09:30.589Z,28.41
2022-09-02T11:15:46.216Z,28.01
2022-09-02T11:22:14.219Z,27.86
2022-09-02T11:28:55.689Z,28.02
2022-09-02T11:35:03.816Z,27.97
2022-09-02T11:48:31.335Z,28.37
2022-09-02T11:54:40.718Z,28.28
2022-09-02T12:01:05.369Z,28.46
2022-09-02T12:07:09.930Z,28.36
2022-09-02T12:13:36.001Z,28.20
2022-09-02T12:19:44.335Z,28.09
2022-09-02T12:25:57.034Z,27.95
2022-09-02T12:31:59.310Z,28.19
2022-09-02T12:38:27.198Z,27.97
2022-09-02T12:44:54.368Z,27.82
2022-09-02T12:51:00.310Z,27.76
2022-09-02T12:57:04.194Z,27.64
2022-09-02T13:03:08.979Z,27.48
2022-09-02T13:09:30.348Z,27.36
2022-09-02T13:16:15.469Z,27.05
2022-09-02T13:22:54.583Z,26.57
2022-09-02T13:28:56.788Z,26.31
2022-09-02T13:35:24.345Z,26.01
2022-09-02T13:41:33.845Z,25.78
2022-09-02T13:47:36.818Z,25.71
2022-09-02T13:54:18.904Z,25.82
2022-09-02T14:00:16.955Z,25.72
2022-09-02T14:06:23.821Z,25.90
2022-09-02T14:12:29.890Z,26.07
2022-09-02T14:18:31.874Z,25.88
2022-09-02T14:24:41.545Z,25.68
2022-09-02T14:30:56.927Z,24.94
2022-09-02T14:36:58.981Z,24.67
2022-09-02T14:43:01.422Z,23.98
2022-09-02T14:49:19.542Z,23.20
2022-09-02T14:56:00.866Z,22.96
2022-09-02T15:02:04.799Z,22.63
2022-09-02T15:08:07.219Z,22.36
2022-09-02T15:14:11.473Z,21.95
2022-09-02T15:20:13.706Z,21.81
2022-09-02T15:26:16.662Z,21.71
2022-09-02T15:32:19.081Z,21.69
2022-09-02T15:38:21.173Z,21.53
2022-09-02T15:44:26.046Z,21.51
2022-09-02T15:50:33.546Z,21.38
2022-09-02T15:56:38.696Z,21.19
2022-09-02T16:02:41.385Z,21.08
2022-09-02T16:08:43.444Z,21.17
2022-09-02T16:14:49.358Z,20.95
2022-09-02T16:20:57.569Z,20.70
2022-09-02T16:27:04.696Z,20.46
2022-09-02T16:33:06.703Z,20.17
2022-09-02T16:39:12.246Z,19.99
2022-09-02T16:45:14.242Z,19.75
2022-09-02T16:51:17.584Z,19.70
2022-09-02T16:57:21.039Z,19.64
2022-09-02T17:03:23.988Z,19.62
2022-09-02T17:09:26.152Z,19.52
2022-09-02T17:15:30.169Z,19.37
2022-09-02T17:21:43.274Z,19.34
2022-09-02T17:27:45.276Z,19.37
2022-09-02T17:33:47.988Z,19.40
2022-09-02T17:39:50.375Z,19.49
2022-09-02T17:45:56.096Z,19.49
2022-09-02T17:52:00.259Z,19.50
2022-09-02T17:58:14.915Z,19.54
2022-09-02T18:04:26.256Z,19.50
2022-09-02T18:10:35.944Z,19.53
2022-09-02T18:17:00.922Z,19.57
2022-09-02T18:23:20.377Z,19.49
2022-09-02T18:29:55.016Z,19.52
2022-09-02T18:36:06.304Z,19.70
2022-09-02T18:42:31.131Z,19.68
2022-09-02T18:48:39.602Z,19.74
2022-09-02T18:55:07.876Z,19.71
2022-09-02T19:01:23.877Z,19.51
2022-09-02T19:07:45.741Z,19.64
2022-09-02T19:13:53.706Z,19.55
2022-09-02T19:19:55.722Z,19.39
2022-09-02T19:25:59.450Z,19.40
2022-09-02T19:32:02.313Z,19.31
2022-09-02T19:38:04.892Z,19.30
2022-09-02T19:44:08.615Z,19.30
2022-09-02T19:50:11.404Z,19.41
2022-09-02T19:56:14.380Z,19.33
2022-09-02T20:02:17.410Z,19.32
2022-09-02T20:08:20.335Z,19.27
2022-09-02T20:14:22.650Z,19.34
2022-09-02T20:20:27.072Z,19.23
2022-09-02T20:26:29.719Z,19.27
2022-09-02T20:32:42.567Z,19.21
2022-09-02T20:39:10.102Z,19.15
2022-09-02T20:45:39.690Z,19.17
2022-09-02T20:52:12.866Z,19.05
2022-09-02T20:58:33.034Z,18.61
2022-09-02T21:04:50.834Z,18.15
2022-09-02T21:10:56.590Z,17.83
2022-09-02T21:17:04.945Z,17.65
2022-09-02T21:23:13.569Z,17.69
2022-09-02T21:29:46.709Z,17.79
2022-09-02T21:35:52.044Z,17.84
2022-09-02T21:42:15.754Z,17.88
2022-09-02T21:48:41.231Z,17.90
2022-09-02T21:55:02.049Z,18.11
2022-09-02T22:01:22.174Z,18.01
2022-09-02T22:07:33.708Z,17.88
2022-09-02T22:13:40.932Z,17.82
2022-09-02T22:19:44.395Z,17.74
2022-09-02T22:25:48.854Z,17.63
2022-09-02T22:31:57.322Z,17.45
2022-09-02T22:38:10.899Z,17.45
2022-09-02T22:44:57.658Z,17.31
2022-09-02T22:51:22.942Z,17.45
2022-09-02T22:57:43.826Z,17.58
2022-09-02T23:04:07.352Z,17.48
2022-09-02T23:10:18.750Z,17.55
2022-09-02T23:16:45.491Z,17.56
2022-09-02T23:23:10.359Z,17.60
2022-09-02T23:29:29.308Z,17.52
2022-09-02T23:35:58.872Z,17.55
2022-09-02T23:42:00.997Z,17.51
2022-09-02T23:48:23.260Z,17.47
2022-09-02T23:54:39.560Z,17.62
